Terminal Aerodrome Forecast
Issued by NWS Brownsville, TX

Home | Current Version | Previous Version | Text Only | Print | Product List | Glossary On
Versions: 1 2 3 4 5 6 7 8 9 10 11 12 13 14 15
000
FTUS44 KBRO 041730
TAFMFE
TAF
KMFE 041730Z 0418/0518 15015G20KT P6SM SCT035
     FM050100 14010KT P6SM SCT250
     FM050900 14008KT P6SM BKN040
     FM051500 15014KT P6SM FEW030 SCT250=

USA.gov is the U.S. government's official web portal to all federal, state and local government web resources and services.